Time;durP1;ratioP1;P1;durP2;ratioP2;P2;SDS_P1;SDS_P2;PMS_P1;PMS_P2;Temp;Humidity;BMP_temperature;BMP_pressure;BME280_temperature;BME280_humidity;BME280_pressure;Samples;Min_cycle;Max_cycle;Signal;HPM_P1;HPM_P2
2022/04/02 00:00:06;;;;;;;14.43;6.53;;;6.10;57.90;;;;;;5121462;27;20541;-89
2022/04/02 00:02:39;;;;;;;6.80;5.77;;;6.20;58.00;;;;;;5105510;27;20508;-89
2022/04/02 00:05:07;;;;;;;8.07;4.90;;;6.30;57.60;;;;;;5104335;27;20484;-88
2022/04/02 00:07:36;;;;;;;17.20;6.67;;;6.10;57.30;;;;;;5090690;27;20517;-90
2022/04/02 00:10:03;;;;;;;9.50;5.60;;;6.10;57.70;;;;;;5092102;27;20441;-94
2022/04/02 00:12:32;;;;;;;8.90;5.80;;;6.20;58.20;;;;;;5091542;27;20464;-92
2022/04/02 00:15:00;;;;;;;7.67;6.33;;;6.30;58.00;;;;;;5088888;27;20437;-91
2022/04/02 00:17:27;;;;;;;9.87;6.27;;;6.30;57.80;;;;;;5110186;27;20450;-91
2022/04/02 00:19:55;;;;;;;7.47;4.77;;;6.20;57.20;;;;;;5092227;27;20450;-89
2022/04/02 00:22:22;;;;;;;6.87;5.43;;;6.20;57.30;;;;;;5099539;27;20562;-91
2022/04/02 00:24:50;;;;;;;7.93;5.67;;;6.20;57.30;;;;;;5128477;27;20468;-90
2022/04/02 00:27:17;;;;;;;7.73;6.40;;;6.10;57.80;;;;;;5117282;27;20446;-88
2022/04/02 00:29:45;;;;;;;7.70;5.93;;;6.20;58.00;;;;;;5103836;27;20445;-88
2022/04/02 00:32:12;;;;;;;10.83;6.80;;;6.40;58.10;;;;;;5111020;27;20514;-87
2022/04/02 00:34:40;;;;;;;8.00;5.80;;;6.50;57.80;;;;;;5102725;27;20478;-87
2022/04/02 00:37:12;;;;;;;8.30;5.80;;;6.60;57.50;;;;;;5135911;27;20440;-87
2022/04/02 00:39:40;;;;;;;13.10;6.23;;;6.60;57.60;;;;;;5112630;27;20827;-87
2022/04/02 00:42:14;;;;;;;10.37;6.33;;;6.60;57.70;;;;;;5119984;27;20468;-88
2022/04/02 00:44:41;;;;;;;9.97;7.07;;;6.70;57.20;;;;;;5099404;27;20526;-88
2022/04/02 00:47:09;;;;;;;9.80;6.77;;;6.70;57.00;;;;;;5103036;27;20446;-87
2022/04/02 00:49:36;;;;;;;9.57;6.33;;;6.70;57.60;;;;;;5103162;27;20436;-86
2022/04/02 00:52:03;;;;;;;9.10;6.20;;;6.70;56.90;;;;;;5103746;27;20458;-87
2022/04/02 00:54:33;;;;;;;15.00;6.60;;;6.60;56.70;;;;;;5135857;27;20440;-88
2022/04/02 01:00:10;;;;;;;7.83;5.33;;;6.40;56.70;;;;;;5117849;27;20980;-88
2022/04/02 01:02:39;;;;;;;8.30;5.80;;;6.30;57.40;;;;;;5103746;27;20472;-86
2022/04/02 01:07:51;;;;;;;12.07;7.17;;;6.30;57.60;;;;;;5110015;27;20437;-86
2022/04/02 01:10:19;;;;;;;10.47;6.30;;;6.40;57.20;;;;;;5097521;27;20456;-87
2022/04/02 01:12:48;;;;;;;11.70;5.80;;;6.30;57.50;;;;;;5102673;27;20472;-86
2022/04/02 01:15:18;;;;;;;7.80;5.43;;;6.30;57.30;;;;;;5109101;27;20466;-89
2022/04/02 01:17:50;;;;;;;9.30;6.20;;;6.30;57.20;;;;;;5103136;27;20852;-88
2022/04/02 01:20:29;;;;;;;9.87;6.90;;;6.30;57.90;;;;;;5116666;27;20456;-88
2022/04/02 01:22:59;;;;;;;10.67;6.17;;;6.10;57.40;;;;;;5102728;27;20469;-88
2022/04/02 01:25:32;;;;;;;8.13;5.97;;;5.80;58.20;;;;;;5087128;27;20449;-88
2022/04/02 01:28:01;;;;;;;10.03;6.47;;;6.00;58.70;;;;;;5096459;27;20544;-87
2022/04/02 01:30:31;;;;;;;7.83;6.20;;;6.10;58.50;;;;;;5093307;27;20441;-88
2022/04/02 01:32:59;;;;;;;9.17;6.27;;;6.10;58.10;;;;;;5108162;27;20469;-90
2022/04/02 01:35:27;;;;;;;10.17;6.73;;;6.30;58.10;;;;;;5111441;27;20472;-88
2022/04/02 01:38:09;;;;;;;7.83;6.70;;;6.20;57.90;;;;;;5093687;27;20452;-90
2022/04/02 01:40:36;;;;;;;11.40;7.00;;;6.30;58.00;;;;;;5094054;27;20488;-87
2022/04/02 01:43:05;;;;;;;9.87;6.17;;;6.10;57.60;;;;;;5094012;27;20466;-89
2022/04/02 01:45:32;;;;;;;9.00;6.83;;;6.00;57.90;;;;;;5095153;27;20894;-91
2022/04/02 01:48:03;;;;;;;12.40;6.87;;;6.00;58.30;;;;;;5108446;27;20782;-90
2022/04/02 01:50:43;;;;;;;11.97;6.27;;;6.00;58.10;;;;;;5100874;27;20475;-88
2022/04/02 01:53:12;;;;;;;9.97;6.10;;;6.00;58.20;;;;;;5110669;27;20548;-89
2022/04/02 01:55:39;;;;;;;11.20;6.33;;;5.90;58.20;;;;;;5088331;27;20477;-87
2022/04/02 01:58:26;;;;;;;8.87;5.60;;;6.00;58.10;;;;;;5096032;27;20455;-88
2022/04/02 02:00:56;;;;;;;9.20;7.93;;;6.00;58.20;;;;;;5092489;27;20487;-89
2022/04/02 02:03:24;;;;;;;9.10;5.90;;;6.00;57.80;;;;;;5089370;27;20522;-88
2022/04/02 02:05:53;;;;;;;12.07;6.13;;;6.20;58.10;;;;;;5106588;27;20445;-88
2022/04/02 02:08:23;;;;;;;8.30;6.40;;;6.20;57.70;;;;;;5108897;27;21063;-89
2022/04/02 02:10:58;;;;;;;8.63;6.00;;;6.10;58.20;;;;;;5087621;27;20557;-89
2022/04/02 02:13:44;;;;;;;7.47;4.80;;;6.00;58.20;;;;;;5120272;27;20457;-88
2022/04/02 02:16:15;;;;;;;7.97;5.40;;;6.00;58.30;;;;;;5102789;27;20453;-87
2022/04/02 02:18:42;;;;;;;8.30;5.67;;;6.20;58.90;;;;;;5106500;27;20445;-89
2022/04/02 02:21:09;;;;;;;6.70;5.10;;;6.00;58.20;;;;;;5121687;27;20504;-89
2022/04/02 02:23:38;;;;;;;7.50;5.60;;;6.20;58.10;;;;;;5109064;27;20568;-89
2022/04/02 02:26:05;;;;;;;8.23;5.50;;;6.30;57.80;;;;;;5099068;27;20449;-88
2022/04/02 02:28:32;;;;;;;7.93;5.90;;;6.30;57.70;;;;;;5108176;27;20457;-88
2022/04/02 02:31:00;;;;;;;9.00;5.07;;;6.40;57.30;;;;;;5108599;27;20601;-89
2022/04/02 02:36:17;;;;;;;5.50;4.57;;;6.40;57.00;;;;;;5093655;27;20524;-89
2022/04/02 02:38:53;;;;;;;5.50;5.00;;;6.20;57.20;;;;;;5107821;27;20453;-89
2022/04/02 02:41:29;;;;;;;7.73;5.17;;;6.20;57.90;;;;;;5089829;27;20476;-89
2022/04/02 02:44:00;;;;;;;9.00;4.20;;;6.10;57.50;;;;;;5090058;27;21015;-89
2022/04/02 02:46:34;;;;;;;6.90;4.70;;;5.90;57.90;;;;;;5108459;27;21166;-87
2022/04/02 02:49:08;;;;;;;7.73;5.00;;;5.90;58.00;;;;;;5122192;27;20956;-88
2022/04/02 02:51:36;;;;;;;7.17;5.03;;;6.00;58.10;;;;;;5099314;27;20477;-90
2022/04/02 02:54:05;;;;;;;8.73;5.03;;;6.00;58.20;;;;;;5105215;27;20460;-88
2022/04/02 02:56:34;;;;;;;7.23;4.93;;;6.00;58.10;;;;;;5110277;27;20458;-89
2022/04/02 02:59:01;;;;;;;5.60;4.40;;;5.90;58.50;;;;;;5108776;27;20445;-90
2022/04/02 03:01:28;;;;;;;5.83;4.30;;;5.90;58.10;;;;;;5087276;27;20470;-89
2022/04/02 03:03:58;;;;;;;7.50;5.37;;;5.60;58.60;;;;;;5094268;27;21058;-88
2022/04/02 03:06:30;;;;;;;5.00;3.40;;;5.80;58.80;;;;;;5104007;27;20630;-90
2022/04/02 03:08:57;;;;;;;6.37;4.50;;;6.00;58.40;;;;;;5082534;27;20450;-90
2022/04/02 03:11:25;;;;;;;8.40;3.40;;;5.90;57.70;;;;;;5091904;27;20462;-90
2022/04/02 03:13:54;;;;;;;5.60;4.73;;;5.80;58.20;;;;;;5097480;27;20872;-89
2022/04/02 03:16:22;;;;;;;5.00;3.90;;;5.90;58.40;;;;;;5102439;27;20493;-92
2022/04/02 03:19:02;;;;;;;7.60;3.60;;;6.00;58.60;;;;;;5092024;27;20635;-92
2022/04/02 03:21:29;;;;;;;7.00;4.50;;;6.10;57.80;;;;;;5095571;27;20465;-91
2022/04/02 03:23:59;;;;;;;7.93;4.00;;;5.90;57.70;;;;;;5085201;27;20444;-91
2022/04/02 03:26:30;;;;;;;4.90;3.90;;;6.00;57.90;;;;;;5082639;27;20809;-91
2022/04/02 03:29:02;;;;;;;6.50;4.43;;;6.00;58.40;;;;;;5103448;27;21088;-91
2022/04/02 03:31:29;;;;;;;4.37;3.30;;;6.00;57.70;;;;;;5089576;27;20487;-91
2022/04/02 03:33:58;;;;;;;5.17;3.80;;;6.00;57.70;;;;;;5092775;27;21125;-89
2022/04/02 03:36:25;;;;;;;6.43;3.77;;;6.00;58.20;;;;;;5090483;27;20484;-91
2022/04/02 03:38:52;;;;;;;5.97;4.30;;;6.10;57.80;;;;;;5091163;27;20450;-90
2022/04/02 03:41:20;;;;;;;5.30;4.40;;;6.10;57.70;;;;;;5101096;27;20474;-91
2022/04/02 03:43:53;;;;;;;6.10;4.13;;;6.10;57.80;;;;;;5090348;27;20469;-91
2022/04/02 03:49:13;;;;;;;6.97;4.43;;;6.30;57.60;;;;;;5096741;27;20432;-91
2022/04/02 03:51:42;;;;;;;4.20;2.77;;;6.40;57.10;;;;;;5096206;27;20537;-92
2022/04/02 03:54:14;;;;;;;4.60;3.20;;;6.40;56.90;;;;;;5112013;27;20540;-92
2022/04/02 03:56:46;;;;;;;3.70;3.37;;;6.40;57.00;;;;;;5093608;27;20442;-91
2022/04/02 03:59:18;;;;;;;4.00;3.47;;;6.20;56.80;;;;;;5092198;27;20457;-89
2022/04/02 04:01:48;;;;;;;3.43;2.80;;;6.30;57.20;;;;;;5089293;27;20469;-89
2022/04/02 04:04:16;;;;;;;9.00;3.93;;;6.20;56.90;;;;;;5086790;27;20548;-87
2022/04/02 04:06:44;;;;;;;5.63;3.80;;;6.00;57.40;;;;;;5104832;27;20498;-88
2022/04/02 04:09:13;;;;;;;7.50;4.67;;;6.00;57.50;;;;;;5093422;27;20482;-89
2022/04/02 04:11:43;;;;;;;6.33;3.90;;;5.80;57.40;;;;;;5084426;27;20529;-89
2022/04/02 04:14:12;;;;;;;4.33;3.93;;;5.70;58.20;;;;;;5108764;27;20967;-90
2022/04/02 04:16:41;;;;;;;6.03;3.70;;;5.70;58.20;;;;;;5102140;27;20948;-90
2022/04/02 04:19:09;;;;;;;8.07;3.60;;;5.60;58.30;;;;;;5093385;27;20461;-89
2022/04/02 04:21:36;;;;;;;3.57;3.27;;;5.50;58.50;;;;;;5091017;27;21354;-88
2022/04/02 04:24:04;;;;;;;5.77;3.47;;;5.60;58.90;;;;;;5091330;27;20461;-90
2022/04/02 04:26:32;;;;;;;4.73;3.77;;;5.70;58.20;;;;;;5122859;27;20673;-88
2022/04/02 04:28:59;;;;;;;3.47;2.90;;;5.80;57.50;;;;;;5119991;27;20453;-89
2022/04/02 04:31:26;;;;;;;5.97;3.90;;;5.80;57.30;;;;;;5089521;27;20530;-90
2022/04/02 04:33:55;;;;;;;6.03;3.90;;;5.60;57.00;;;;;;5108860;27;20445;-88
2022/04/02 04:36:24;;;;;;;5.93;3.57;;;5.30;57.50;;;;;;5113452;27;20506;-88
2022/04/02 04:38:52;;;;;;;3.83;3.20;;;5.30;57.80;;;;;;5102073;27;20503;-88
2022/04/02 04:41:22;;;;;;;7.30;3.20;;;5.20;57.60;;;;;;5080773;27;20471;-88
2022/04/02 04:43:54;;;;;;;6.13;3.43;;;5.30;58.40;;;;;;5086965;27;20470;-88
2022/04/02 04:46:26;;;;;;;5.23;4.10;;;5.30;57.70;;;;;;5093880;27;20569;-89
2022/04/02 04:48:57;;;;;;;4.30;3.67;;;5.10;57.20;;;;;;5081846;27;21049;-89
2022/04/02 04:51:25;;;;;;;5.27;4.60;;;5.10;58.40;;;;;;5093230;27;20506;-88
2022/04/02 04:53:57;;;;;;;5.70;3.80;;;5.10;58.30;;;;;;5102953;27;20438;-89
2022/04/02 04:56:24;;;;;;;11.43;4.67;;;5.20;58.40;;;;;;5103494;27;20460;-89
2022/04/02 04:58:52;;;;;;;5.33;4.83;;;5.20;57.70;;;;;;5099761;27;20442;-89
2022/04/02 05:01:24;;;;;;;7.27;4.27;;;5.30;58.00;;;;;;5109140;27;20495;-90
2022/04/02 05:03:51;;;;;;;5.63;4.00;;;5.20;57.70;;;;;;5087153;27;20505;-90
2022/04/02 05:06:22;;;;;;;7.13;4.60;;;5.20;58.00;;;;;;5089009;27;20480;-90
2022/04/02 05:08:54;;;;;;;6.17;5.20;;;5.20;57.30;;;;;;5107931;27;20520;-89
2022/04/02 05:11:24;;;;;;;4.70;4.07;;;5.20;57.60;;;;;;5094968;27;20470;-91
2022/04/02 05:13:55;;;;;;;20.03;5.07;;;5.20;57.70;;;;;;5092160;27;20444;-88
2022/04/02 05:16:24;;;;;;;7.20;4.60;;;5.20;57.70;;;;;;5092427;27;20561;-89
2022/04/02 05:18:54;;;;;;;5.00;4.43;;;5.10;57.40;;;;;;5103608;27;20446;-90
2022/04/02 05:21:24;;;;;;;8.33;3.97;;;5.10;58.40;;;;;;5096316;27;20484;-89
2022/04/02 05:23:51;;;;;;;4.50;4.00;;;5.10;57.50;;;;;;5117547;27;20465;-89
2022/04/02 05:26:19;;;;;;;8.10;4.67;;;4.90;57.30;;;;;;5123732;27;20877;-90
2022/04/02 05:28:48;;;;;;;5.73;4.27;;;5.00;57.60;;;;;;5125294;27;20444;-91
2022/04/02 05:31:15;;;;;;;9.07;4.37;;;4.90;57.80;;;;;;5111756;27;20504;-89
2022/04/02 05:33:42;;;;;;;7.27;3.50;;;5.10;57.90;;;;;;5104852;27;20470;-89
2022/04/02 05:36:10;;;;;;;5.67;4.23;;;5.20;57.30;;;;;;5143591;27;20623;-90
2022/04/02 05:38:38;;;;;;;4.80;3.83;;;5.20;57.10;;;;;;5109270;27;20967;-89
2022/04/02 05:41:05;;;;;;;14.83;5.07;;;5.20;57.60;;;;;;5109846;27;20534;-92
2022/04/02 05:43:33;;;;;;;7.00;5.10;;;5.30;57.60;;;;;;5107233;27;20470;-90
2022/04/02 05:46:00;;;;;;;7.20;4.60;;;5.40;57.30;;;;;;5118057;27;20545;-92
2022/04/02 05:48:28;;;;;;;24.33;4.73;;;5.30;57.20;;;;;;5103775;27;20449;-90
2022/04/02 05:50:55;;;;;;;7.43;4.10;;;5.20;57.00;;;;;;5131400;27;20472;-91
2022/04/02 05:53:23;;;;;;;7.60;3.60;;;5.10;56.20;;;;;;5108306;27;20481;-93
2022/04/02 05:55:52;;;;;;;8.87;5.20;;;4.90;56.90;;;;;;5112555;27;20513;-91
2022/04/02 05:58:19;;;;;;;5.80;4.03;;;4.90;57.00;;;;;;5099261;27;20510;-91
2022/04/02 06:00:46;;;;;;;6.80;4.60;;;5.00;57.40;;;;;;5136828;27;20499;-91
2022/04/02 06:03:15;;;;;;;9.30;5.60;;;5.00;57.00;;;;;;5099304;27;20610;-90
2022/04/02 06:05:42;;;;;;;6.67;5.27;;;5.00;56.80;;;;;;5112733;27;20452;-91
2022/04/02 06:08:10;;;;;;;7.63;6.00;;;4.90;57.30;;;;;;5103931;27;20503;-92
2022/04/02 06:10:37;;;;;;;8.33;5.97;;;5.00;57.70;;;;;;5104303;27;20460;-91
2022/04/02 06:13:06;;;;;;;8.47;6.30;;;5.30;58.00;;;;;;5098661;27;20460;-90
2022/04/02 06:15:34;;;;;;;8.03;5.80;;;5.50;57.40;;;;;;5090731;27;20529;-91
2022/04/02 06:18:01;;;;;;;9.80;6.53;;;5.70;56.60;;;;;;5125350;27;20950;-92
2022/04/02 06:20:28;;;;;;;8.43;6.40;;;5.70;56.50;;;;;;5117604;27;20464;-90
2022/04/02 06:22:56;;;;;;;8.73;4.53;;;5.70;55.50;;;;;;5092918;27;20472;-91
2022/04/02 06:25:23;;;;;;;66.33;32.10;;;5.70;55.50;;;;;;5105609;27;20453;-90
2022/04/02 06:27:50;;;;;;;23.87;14.63;;;5.80;55.00;;;;;;5116679;27;20437;-91
2022/04/02 06:30:20;;;;;;;13.00;8.13;;;5.70;55.30;;;;;;5108146;27;20829;-90
2022/04/02 06:32:48;;;;;;;9.50;5.70;;;5.90;55.70;;;;;;5112369;27;20469;-88
2022/04/02 06:35:15;;;;;;;14.57;10.80;;;6.00;55.20;;;;;;5120755;27;20461;-91
2022/04/02 06:37:43;;;;;;;8.27;6.97;;;6.00;54.80;;;;;;5113737;27;20446;-92
2022/04/02 06:40:11;;;;;;;15.37;9.77;;;6.20;55.00;;;;;;5112320;27;20969;-90
2022/04/02 06:42:38;;;;;;;7.50;4.90;;;6.20;54.40;;;;;;5129796;27;20465;-93
2022/04/02 06:45:12;;;;;;;7.20;4.80;;;5.80;54.80;;;;;;5105262;27;20428;-92
2022/04/02 06:47:41;;;;;;;5.70;5.07;;;5.60;54.70;;;;;;5086668;27;20715;-89
2022/04/02 06:50:10;;;;;;;6.53;4.53;;;5.60;56.20;;;;;;5082381;27;22184;-90
2022/04/02 06:52:39;;;;;;;9.10;7.70;;;5.50;55.00;;;;;;5092713;27;20588;-90
2022/04/02 06:55:08;;;;;;;8.03;6.10;;;5.70;56.20;;;;;;5111935;27;20486;-92
2022/04/02 06:57:41;;;;;;;7.47;6.47;;;5.80;55.80;;;;;;5095296;27;20454;-91
2022/04/02 07:00:10;;;;;;;6.90;6.17;;;5.80;56.40;;;;;;5102510;27;20449;-90
2022/04/02 07:02:37;;;;;;;9.10;6.50;;;5.80;55.80;;;;;;5110592;27;20470;-90
2022/04/02 07:05:06;;;;;;;8.13;6.50;;;5.90;55.80;;;;;;5130285;27;20549;-92
2022/04/02 07:07:33;;;;;;;6.20;5.43;;;6.30;56.10;;;;;;5087298;27;20520;-90
2022/04/02 07:10:01;;;;;;;24.33;19.00;;;6.30;54.60;;;;;;5113086;27;20460;-91
2022/04/02 07:12:28;;;;;;;9.03;5.33;;;6.40;54.60;;;;;;5111506;27;20518;-92
2022/04/02 07:14:55;;;;;;;7.30;5.97;;;6.50;53.30;;;;;;5136248;27;20442;-91
2022/04/02 07:17:22;;;;;;;5.80;4.67;;;6.20;53.20;;;;;;5105758;27;20471;-90
2022/04/02 07:19:51;;;;;;;7.53;5.27;;;6.00;54.00;;;;;;5092859;27;20449;-89
2022/04/02 07:22:22;;;;;;;6.20;4.97;;;5.80;54.20;;;;;;5107960;27;20492;-91
2022/04/02 07:24:51;;;;;;;8.63;4.60;;;6.00;54.70;;;;;;5117795;27;20986;-92
2022/04/02 07:27:22;;;;;;;6.20;5.17;;;6.20;54.40;;;;;;5107046;27;20502;-90
2022/04/02 07:29:50;;;;;;;9.27;6.97;;;6.30;53.20;;;;;;5106238;27;20832;-91
2022/04/02 07:32:17;;;;;;;10.17;4.93;;;6.30;53.90;;;;;;5102661;27;21084;-90
2022/04/02 07:34:44;;;;;;;7.73;5.60;;;6.30;53.60;;;;;;5107051;27;20456;-91
2022/04/02 07:37:21;;;;;;;5.13;4.53;;;6.30;52.50;;;;;;5103638;27;20463;-91
2022/04/02 07:39:54;;;;;;;4.83;3.63;;;6.30;52.50;;;;;;5120664;27;20465;-91
2022/04/02 07:42:26;;;;;;;8.63;5.80;;;6.30;52.10;;;;;;5101605;27;20469;-90
2022/04/02 07:45:02;;;;;;;18.20;12.43;;;6.20;51.60;;;;;;5105826;27;20465;-91
2022/04/02 07:47:33;;;;;;;8.67;5.07;;;6.10;51.60;;;;;;5087454;27;20457;-90
2022/04/02 07:50:03;;;;;;;6.70;5.53;;;6.20;52.60;;;;;;5089471;27;20446;-91
2022/04/02 07:52:32;;;;;;;5.63;4.73;;;6.30;53.00;;;;;;5104147;27;21194;-90
2022/04/02 07:55:01;;;;;;;10.13;5.37;;;6.30;51.70;;;;;;5101697;27;20442;-90
2022/04/02 07:57:38;;;;;;;5.93;4.10;;;6.10;51.00;;;;;;5102293;27;20436;-89
2022/04/02 08:00:10;;;;;;;5.50;4.97;;;6.10;51.00;;;;;;5102747;27;20444;-91
2022/04/02 08:02:42;;;;;;;10.93;5.87;;;6.20;51.10;;;;;;5085926;27;20485;-89
2022/04/02 08:05:12;;;;;;;5.03;3.77;;;6.10;51.70;;;;;;5107434;27;20497;-89
2022/04/02 08:07:43;;;;;;;6.70;5.50;;;6.20;51.40;;;;;;5100175;27;20433;-91
2022/04/02 08:10:12;;;;;;;8.10;5.80;;;6.30;52.10;;;;;;5083598;27;20700;-90
2022/04/02 08:12:45;;;;;;;9.80;4.90;;;6.30;51.00;;;;;;5101363;27;20473;-90
2022/04/02 08:15:13;;;;;;;5.23;4.73;;;6.20;50.90;;;;;;5120699;27;20453;-91
2022/04/02 08:17:41;;;;;;;8.17;5.30;;;6.40;51.30;;;;;;5087101;27;20536;-90
2022/04/02 08:20:12;;;;;;;11.90;8.07;;;6.50;50.70;;;;;;5119244;27;20473;-91
2022/04/02 08:22:40;;;;;;;11.40;7.07;;;6.60;51.00;;;;;;5100902;27;20477;-91
2022/04/02 08:25:08;;;;;;;6.03;3.70;;;6.80;51.20;;;;;;5098879;27;20470;-90
2022/04/02 08:27:38;;;;;;;10.77;6.70;;;6.90;50.70;;;;;;5108570;27;20524;-90
2022/04/02 08:30:08;;;;;;;9.97;6.33;;;7.00;50.40;;;;;;5120040;27;20462;-91
2022/04/02 08:32:54;;;;;;;11.73;5.23;;;7.10;51.00;;;;;;5093164;27;21007;-89
2022/04/02 08:35:26;;;;;;;10.07;6.00;;;7.10;49.70;;;;;;5102443;27;20964;-87
2022/04/02 08:38:17;;;;;;;4.53;3.80;;;6.80;49.30;;;;;;5113798;27;20525;-89
2022/04/02 08:41:29;;;;;;;11.30;6.37;;;6.80;50.00;;;;;;5105792;27;20456;-88
2022/04/02 08:44:33;;;;;;;13.23;6.13;;;7.00;50.80;;;;;;5070633;27;20480;-90
2022/04/02 08:47:13;;;;;;;13.57;8.93;;;7.00;49.10;;;;;;5122458;27;20527;-88
2022/04/02 08:49:42;;;;;;;11.10;7.40;;;6.90;50.30;;;;;;5116230;27;20437;-88
2022/04/02 08:52:21;;;;;;;9.07;5.40;;;7.10;50.20;;;;;;5137649;27;21094;-87
2022/04/02 08:55:13;;;;;;;7.10;5.50;;;7.00;49.10;;;;;;5136049;27;20548;-89
2022/04/02 08:58:02;;;;;;;6.50;4.70;;;7.10;49.50;;;;;;5136706;27;20443;-88
2022/04/02 09:00:39;;;;;;;6.67;3.90;;;6.80;49.20;;;;;;5115622;27;20445;-87
2022/04/02 09:03:36;;;;;;;6.63;4.40;;;6.90;49.30;;;;;;5134674;27;20453;-88
2022/04/02 09:06:36;;;;;;;6.97;4.70;;;7.00;50.20;;;;;;5116911;27;20448;-87
2022/04/02 09:09:06;;;;;;;8.27;4.70;;;7.10;48.10;;;;;;5115124;27;20506;-88
2022/04/02 09:12:00;;;;;;;10.30;5.80;;;7.10;48.80;;;;;;5134198;27;20479;-89
2022/04/02 09:14:53;;;;;;;17.70;6.20;;;7.30;48.90;;;;;;5132810;27;20434;-88
2022/04/02 09:17:36;;;;;;;10.03;6.00;;;7.60;48.30;;;;;;5116420;27;20537;-87
2022/04/02 09:20:20;;;;;;;15.97;7.40;;;7.80;47.70;;;;;;5117715;27;20445;-88
2022/04/02 09:23:08;;;;;;;13.87;6.80;;;7.60;46.80;;;;;;5135485;27;20461;-87
2022/04/02 09:26:06;;;;;;;14.57;7.13;;;7.70;46.60;;;;;;5133864;27;20473;-87
2022/04/02 09:28:43;;;;;;;15.20;7.57;;;7.90;47.50;;;;;;5134410;27;20915;-88
2022/04/02 09:31:43;;;;;;;19.00;7.90;;;8.00;47.60;;;;;;5134571;27;20467;-87
2022/04/02 09:34:44;;;;;;;18.47;10.13;;;8.00;46.60;;;;;;5115715;27;20443;-87
2022/04/02 09:37:30;;;;;;;6.73;5.20;;;7.90;47.20;;;;;;5114290;27;20474;-86
2022/04/02 09:40:05;;;;;;;10.00;5.20;;;8.00;47.00;;;;;;5113542;27;21337;-88
2022/04/02 09:42:38;;;;;;;11.70;6.00;;;8.10;46.90;;;;;;5134107;27;20552;-87
2022/04/02 09:45:12;;;;;;;7.13;5.17;;;7.90;46.60;;;;;;5131923;27;20469;-86
2022/04/02 09:48:08;;;;;;;6.27;5.63;;;7.60;46.20;;;;;;5117145;27;20445;-86
2022/04/02 09:50:37;;;;;;;5.93;5.30;;;7.60;48.40;;;;;;5133955;27;20482;-85
2022/04/02 09:53:15;;;;;;;6.40;4.70;;;7.80;46.30;;;;;;5113054;27;20450;-86
2022/04/02 09:55:51;;;;;;;6.20;5.27;;;8.00;46.80;;;;;;5118174;27;21249;-87
2022/04/02 09:58:52;;;;;;;6.00;5.40;;;8.30;48.20;;;;;;5137825;27;20453;-90
2022/04/02 10:01:28;;;;;;;7.70;5.40;;;8.60;47.20;;;;;;5095811;27;20573;-89
2022/04/02 10:04:00;;;;;;;7.00;4.77;;;8.60;45.90;;;;;;5109237;27;20453;-87
2022/04/02 10:06:31;;;;;;;11.83;9.87;;;8.40;44.90;;;;;;5095590;27;20441;-89
2022/04/02 10:09:06;;;;;;;13.70;9.43;;;8.50;46.00;;;;;;5114986;27;20520;-89
2022/04/02 10:11:35;;;;;;;10.67;7.20;;;8.30;44.80;;;;;;5110423;27;20466;-89
2022/04/02 10:14:04;;;;;;;9.83;5.77;;;8.40;46.80;;;;;;5105101;27;20532;-90
2022/04/02 10:16:33;;;;;;;8.50;6.27;;;8.50;46.60;;;;;;5136282;27;20497;-90
2022/04/02 10:19:01;;;;;;;9.77;6.30;;;8.80;46.50;;;;;;5140721;27;20473;-90
2022/04/02 10:21:30;;;;;;;14.90;5.47;;;9.00;46.00;;;;;;5120341;27;20465;-91
2022/04/02 10:24:10;;;;;;;10.33;7.10;;;9.00;46.60;;;;;;5093259;27;20453;-91
2022/04/02 10:26:39;;;;;;;10.20;5.77;;;9.10;44.80;;;;;;5120367;27;20459;-92
2022/04/02 10:29:12;;;;;;;8.40;4.80;;;9.20;44.10;;;;;;5093232;27;20465;-92
2022/04/02 10:31:55;;;;;;;8.53;6.17;;;9.30;45.90;;;;;;5119755;27;20450;-93
2022/04/02 10:34:37;;;;;;;9.60;6.07;;;9.00;45.10;;;;;;5096023;27;20438;-93
2022/04/02 10:37:10;;;;;;;7.97;6.30;;;9.10;46.20;;;;;;5133726;27;20463;-94
2022/04/02 10:39:45;;;;;;;9.53;5.77;;;9.20;45.30;;;;;;5100983;27;20461;-94
2022/04/02 10:42:18;;;;;;;7.87;5.80;;;8.80;44.90;;;;;;5119364;27;20976;-91
2022/04/02 10:44:47;;;;;;;8.17;6.30;;;8.40;43.50;;;;;;5102473;27;20752;-92
2022/04/02 10:47:20;;;;;;;9.77;7.17;;;8.00;45.50;;;;;;5138295;27;20452;-91
2022/04/02 10:49:50;;;;;;;11.53;8.13;;;8.00;46.00;;;;;;5116517;27;20460;-91
2022/04/02 10:52:19;;;;;;;5.80;4.80;;;8.40;47.30;;;;;;5133007;27;20555;-88
2022/04/02 10:54:50;;;;;;;10.67;5.70;;;8.50;45.00;;;;;;5137331;27;20466;-91
2022/04/02 10:57:18;;;;;;;8.27;5.77;;;8.70;46.10;;;;;;5117753;27;20438;-89
2022/04/02 10:59:47;;;;;;;9.17;7.90;;;9.10;47.50;;;;;;5111530;27;20474;-91
2022/04/02 11:02:23;;;;;;;10.23;7.43;;;9.30;44.00;;;;;;5114558;27;20890;-89
2022/04/02 11:05:03;;;;;;;10.03;5.97;;;9.20;45.80;;;;;;5131515;27;20497;-89
2022/04/02 11:07:31;;;;;;;9.70;5.90;;;9.10;45.30;;;;;;5130174;27;20434;-89
2022/04/02 11:09:59;;;;;;;7.47;5.07;;;9.30;46.00;;;;;;5109491;27;20439;-89
2022/04/02 11:12:33;;;;;;;6.87;5.10;;;9.40;44.80;;;;;;5129137;27;20496;-90
2022/04/02 11:15:09;;;;;;;10.17;6.20;;;9.20;43.80;;;;;;5133322;27;20453;-91
2022/04/02 11:17:40;;;;;;;10.37;5.97;;;9.20;44.40;;;;;;5112987;27;20454;-90
2022/04/02 11:20:12;;;;;;;7.70;5.90;;;8.90;43.50;;;;;;5128951;27;20521;-89
2022/04/02 11:22:50;;;;;;;7.17;5.40;;;8.60;44.30;;;;;;5129046;27;20460;-88
2022/04/02 11:25:24;;;;;;;5.97;5.37;;;8.40;44.30;;;;;;5130019;27;20471;-86
2022/04/02 11:27:54;;;;;;;11.67;8.47;;;8.40;45.50;;;;;;5097357;27;20484;-88
2022/04/02 11:30:27;;;;;;;10.53;6.47;;;8.70;47.90;;;;;;5106405;27;20510;-88
2022/04/02 11:33:05;;;;;;;9.53;7.27;;;8.80;45.40;;;;;;5092101;27;20722;-88
2022/04/02 11:35:38;;;;;;;11.60;7.53;;;8.80;46.70;;;;;;5119009;27;21139;-84
2022/04/02 11:38:14;;;;;;;7.00;5.07;;;9.00;45.60;;;;;;5113985;27;20468;-87
2022/04/02 11:40:47;;;;;;;8.10;5.70;;;9.00;46.70;;;;;;5119232;27;20438;-87
2022/04/02 11:43:15;;;;;;;13.30;5.63;;;8.80;43.30;;;;;;5130329;27;21228;-88
2022/04/02 11:45:43;;;;;;;12.10;7.00;;;8.90;46.70;;;;;;5094820;27;21080;-87
2022/04/02 11:48:13;;;;;;;11.50;6.57;;;8.90;45.50;;;;;;5120529;27;21442;-89
2022/04/02 11:50:43;;;;;;;19.10;9.40;;;8.90;46.10;;;;;;5094765;27;20473;-87
2022/04/02 11:53:11;;;;;;;11.07;6.40;;;9.20;45.60;;;;;;5128960;27;20488;-87
2022/04/02 11:55:40;;;;;;;9.53;8.23;;;9.50;46.00;;;;;;5130120;27;20558;-86
2022/04/02 11:58:08;;;;;;;12.30;8.43;;;9.50;44.50;;;;;;5130181;27;20455;-86
2022/04/02 12:00:37;;;;;;;16.23;8.90;;;9.40;45.30;;;;;;5131427;27;20847;-87
2022/04/02 12:03:06;;;;;;;11.30;6.17;;;9.20;43.10;;;;;;5131784;27;20460;-87
2022/04/02 12:05:41;;;;;;;12.10;8.20;;;8.90;43.80;;;;;;5129628;27;20585;-88
2022/04/02 12:08:08;;;;;;;10.27;7.60;;;8.90;43.90;;;;;;5130718;27;21701;-87
2022/04/02 12:10:44;;;;;;;8.57;6.07;;;8.80;45.80;;;;;;5130669;27;20449;-88
2022/04/02 12:13:11;;;;;;;7.63;6.20;;;8.80;45.50;;;;;;5131376;27;20771;-87
2022/04/02 12:15:39;;;;;;;7.13;5.57;;;8.70;44.30;;;;;;5128481;27;20849;-89
2022/04/02 12:18:08;;;;;;;11.40;7.10;;;8.60;44.10;;;;;;5130488;27;20460;-88
2022/04/02 12:20:38;;;;;;;10.97;7.47;;;8.60;44.30;;;;;;5131649;27;21160;-87
2022/04/02 12:23:10;;;;;;;8.57;5.73;;;8.80;45.70;;;;;;5129902;27;20534;-88
2022/04/02 12:25:38;;;;;;;14.30;9.37;;;8.90;46.60;;;;;;5085190;27;20465;-87
2022/04/02 12:28:13;;;;;;;11.80;7.00;;;9.20;45.20;;;;;;5132286;27;20450;-87
2022/04/02 12:30:46;;;;;;;8.43;6.47;;;9.20;44.10;;;;;;5129059;27;20499;-87
2022/04/02 12:33:15;;;;;;;10.63;6.70;;;9.30;44.90;;;;;;5132301;27;20442;-87
2022/04/02 12:35:56;;;;;;;13.60;8.60;;;9.30;44.10;;;;;;5133486;27;20918;-87
2022/04/02 12:38:28;;;;;;;10.97;7.23;;;9.40;45.70;;;;;;5111978;27;20525;-87
2022/04/02 12:40:57;;;;;;;11.03;6.57;;;9.40;44.50;;;;;;5130415;27;20464;-88
2022/04/02 12:43:29;;;;;;;11.27;5.83;;;9.10;43.70;;;;;;5131146;27;20452;-88
2022/04/02 12:45:57;;;;;;;8.90;6.20;;;9.00;44.90;;;;;;5130159;27;20470;-88
2022/04/02 12:48:26;;;;;;;9.00;4.80;;;9.10;45.50;;;;;;5130974;27;20450;-88
2022/04/02 12:50:59;;;;;;;11.27;4.60;;;9.00;44.30;;;;;;5130255;27;20462;-88
2022/04/02 12:53:31;;;;;;;10.83;6.50;;;9.30;44.50;;;;;;5130501;27;20444;-88
2022/04/02 12:55:59;;;;;;;8.90;7.47;;;9.30;45.00;;;;;;5131349;27;20935;-88
2022/04/02 12:58:34;;;;;;;11.70;5.27;;;9.50;46.30;;;;;;5112415;27;20445;-88
2022/04/02 13:01:14;;;;;;;7.43;4.43;;;9.50;43.70;;;;;;5127963;27;20469;-88
2022/04/02 13:03:49;;;;;;;5.77;4.30;;;9.50;42.00;;;;;;5130419;27;20464;-89
2022/04/02 13:06:20;;;;;;;5.70;4.37;;;9.20;43.20;;;;;;5128855;27;20460;-89
2022/04/02 13:08:56;;;;;;;5.67;4.77;;;9.20;43.20;;;;;;5114955;27;20456;-89
2022/04/02 13:11:44;;;;;;;5.87;5.03;;;9.30;44.20;;;;;;5127809;27;20457;-88
2022/04/02 13:14:16;;;;;;;7.03;5.60;;;9.20;43.80;;;;;;5131201;27;20442;-88
2022/04/02 13:16:44;;;;;;;7.60;5.93;;;9.30;44.40;;;;;;5132597;27;20700;-88
2022/04/02 13:22:05;;;;;;;23.73;9.47;;;9.60;42.60;;;;;;5132478;27;20453;-89
2022/04/02 13:24:36;;;;;;;6.63;5.40;;;9.50;42.10;;;;;;5132404;27;20449;-89
2022/04/02 13:27:48;;;;;;;5.53;4.93;;;9.50;42.00;;;;;;5113904;27;20472;-89
2022/04/02 13:30:17;;;;;;;7.30;5.13;;;9.50;42.60;;;;;;5089324;27;20473;-90